createdAt,value
2018-09-20T00:00:22.075Z,20.49
2018-09-20T00:02:51.252Z,20.47
2018-09-20T00:05:20.146Z,20.25
2018-09-20T00:07:49.027Z,20.28
2018-09-20T00:10:18.245Z,20.21
2018-09-20T00:12:47.473Z,20.04
2018-09-20T00:15:16.355Z,20.26
2018-09-20T00:17:45.669Z,20.22
2018-09-20T00:20:14.588Z,20.11
2018-09-20T00:22:43.480Z,20.25
2018-09-20T00:25:12.534Z,20.26
2018-09-20T00:27:41.527Z,20.14
2018-09-20T00:30:10.550Z,20.18
2018-09-20T00:32:39.456Z,20.13
2018-09-20T00:35:08.360Z,20.23
2018-09-20T00:37:37.410Z,19.99
2018-09-20T00:40:06.645Z,19.91
2018-09-20T00:42:35.588Z,20.02
2018-09-20T00:45:04.499Z,20.14
2018-09-20T00:47:33.453Z,19.97
2018-09-20T00:50:02.315Z,20.07
2018-09-20T00:52:31.195Z,19.88
2018-09-20T00:55:00.446Z,19.84
2018-09-20T00:57:29.363Z,19.94
2018-09-20T00:59:58.265Z,19.77
2018-09-20T01:02:27.175Z,19.73
2018-09-20T01:04:56.074Z,19.78
2018-09-20T01:07:24.991Z,19.82
2018-09-20T01:09:53.872Z,19.43
2018-09-20T01:12:22.762Z,19.62
2018-09-20T01:14:51.853Z,19.79
2018-09-20T01:17:20.792Z,19.53
2018-09-20T01:19:49.694Z,19.54
2018-09-20T01:22:18.590Z,19.66
2018-09-20T01:24:47.528Z,19.66
2018-09-20T01:27:16.732Z,19.57
2018-09-20T01:29:45.692Z,19.59
2018-09-20T01:32:14.585Z,19.34
2018-09-20T01:34:43.527Z,19.40
2018-09-20T01:37:12.416Z,19.36
2018-09-20T01:39:41.312Z,19.56
2018-09-20T01:42:10.227Z,19.52
2018-09-20T01:44:39.108Z,19.50
2018-09-20T01:47:08.021Z,19.46
2018-09-20T01:49:36.960Z,19.44
2018-09-20T01:52:05.844Z,19.48
2018-09-20T01:54:34.798Z,19.40
2018-09-20T01:57:03.821Z,19.27
2018-09-20T01:59:32.755Z,19.16
2018-09-20T02:02:01.702Z,19.21
2018-09-20T02:04:30.916Z,19.24
2018-09-20T02:06:59.796Z,19.23
2018-09-20T02:09:28.667Z,19.31
2018-09-20T02:11:57.593Z,19.28
2018-09-20T02:14:26.482Z,19.12
2018-09-20T02:16:55.639Z,19.14
2018-09-20T02:19:24.644Z,19.22
2018-09-20T02:21:53.540Z,19.25
2018-09-20T02:24:22.466Z,19.25
2018-09-20T02:26:51.348Z,19.26
2018-09-20T02:29:20.651Z,19.26
2018-09-20T02:31:49.529Z,19.37
2018-09-20T02:34:18.425Z,19.34
2018-09-20T02:36:47.331Z,19.34
2018-09-20T02:39:16.251Z,19.30
2018-09-20T02:41:45.283Z,19.28
2018-09-20T02:44:14.213Z,19.34
2018-09-20T02:46:43.140Z,19.31
2018-09-20T02:49:12.083Z,19.29
2018-09-20T02:51:40.964Z,19.31
2018-09-20T02:54:09.987Z,19.26
2018-09-20T02:56:38.997Z,19.25
2018-09-20T02:59:07.984Z,19.27
2018-09-20T03:01:36.831Z,19.32
2018-09-20T03:04:05.857Z,19.15
2018-09-20T03:06:34.879Z,19.40
2018-09-20T03:09:04.084Z,19.18
2018-09-20T03:11:32.963Z,19.28
2018-09-20T03:14:01.881Z,19.34
2018-09-20T03:16:31.039Z,19.21
2018-09-20T03:18:59.915Z,19.37
2018-09-20T03:21:28.797Z,19.17
2018-09-20T03:23:57.931Z,19.37
2018-09-20T03:26:26.852Z,19.36
2018-09-20T03:28:55.790Z,19.24
2018-09-20T03:31:24.703Z,19.20
2018-09-20T03:33:53.592Z,19.22
2018-09-20T03:36:22.503Z,19.22
2018-09-20T03:38:51.519Z,19.20
2018-09-20T03:41:20.434Z,19.27
2018-09-20T03:43:49.316Z,19.27
2018-09-20T03:46:18.235Z,19.23
2018-09-20T03:48:47.104Z,19.29
2018-09-20T03:51:15.987Z,19.14
2018-09-20T03:53:44.890Z,19.29
2018-09-20T03:56:14.487Z,19.32
2018-09-20T03:58:43.380Z,19.18
2018-09-20T04:01:12.549Z,19.30
2018-09-20T04:03:41.394Z,19.29
2018-09-20T04:06:10.329Z,19.36
2018-09-20T04:08:39.228Z,19.29
2018-09-20T04:11:08.117Z,19.31
2018-09-20T04:13:36.987Z,19.31
2018-09-20T04:16:05.911Z,19.31
2018-09-20T04:18:34.848Z,19.45
2018-09-20T04:21:03.740Z,19.32
2018-09-20T04:23:32.887Z,19.33
2018-09-20T04:26:01.787Z,19.37
2018-09-20T04:28:30.634Z,19.36
2018-09-20T04:30:59.549Z,19.28
2018-09-20T04:33:28.435Z,19.32
2018-09-20T04:35:57.299Z,19.28
2018-09-20T04:38:26.236Z,19.34
2018-09-20T04:40:55.159Z,19.28
2018-09-20T04:43:24.046Z,19.27
2018-09-20T04:45:52.974Z,19.26
2018-09-20T04:48:21.855Z,19.39
2018-09-20T04:50:50.741Z,19.27
2018-09-20T04:53:19.701Z,19.26
2018-09-20T04:55:48.538Z,19.20
2018-09-20T04:58:17.447Z,19.37
2018-09-20T05:00:46.324Z,19.30
2018-09-20T05:03:15.269Z,19.20
2018-09-20T05:05:44.333Z,19.14
2018-09-20T05:08:13.220Z,19.20
2018-09-20T05:10:42.097Z,19.23
2018-09-20T05:13:11.008Z,19.07
2018-09-20T05:15:39.922Z,19.16
2018-09-20T05:18:08.801Z,19.26
2018-09-20T05:20:37.748Z,19.10
2018-09-20T05:23:06.785Z,19.13
2018-09-20T05:25:35.664Z,19.10
2018-09-20T05:28:04.579Z,19.01
2018-09-20T05:30:33.500Z,19.02
2018-09-20T05:33:02.427Z,19.17
2018-09-20T05:35:31.309Z,19.21
2018-09-20T05:38:00.175Z,19.19
2018-09-20T05:40:29.087Z,19.25
2018-09-20T05:42:58.256Z,19.08
2018-09-20T05:45:27.147Z,19.25
2018-09-20T05:47:56.065Z,19.19
2018-09-20T05:50:24.950Z,19.20
2018-09-20T05:52:53.868Z,19.22
2018-09-20T05:55:22.785Z,19.22
2018-09-20T05:57:51.668Z,19.21
2018-09-20T06:00:20.617Z,19.21
2018-09-20T06:02:49.472Z,19.20
2018-09-20T06:05:18.606Z,19.31
2018-09-20T06:07:47.477Z,19.14
2018-09-20T06:10:16.401Z,19.30
2018-09-20T06:12:45.482Z,19.22
2018-09-20T06:15:14.396Z,19.31
2018-09-20T06:17:43.286Z,19.28
2018-09-20T06:20:12.207Z,19.32
2018-09-20T06:22:41.078Z,19.31
2018-09-20T06:25:09.990Z,19.25
2018-09-20T06:27:38.940Z,19.35
2018-09-20T06:30:08.062Z,19.27
2018-09-20T06:32:36.990Z,19.36
2018-09-20T06:35:05.976Z,19.38
2018-09-20T06:37:34.944Z,19.33
2018-09-20T06:40:03.993Z,19.38
2018-09-20T06:42:32.931Z,19.33
2018-09-20T06:45:02.008Z,19.34
2018-09-20T06:47:30.925Z,19.45
2018-09-20T06:49:59.802Z,19.34
2018-09-20T06:52:28.735Z,19.45
2018-09-20T06:54:57.622Z,19.41
2018-09-20T06:57:27.266Z,19.52
2018-09-20T06:59:56.389Z,19.49
2018-09-20T07:02:25.253Z,19.53
2018-09-20T07:04:54.155Z,19.60
2018-09-20T07:07:23.070Z,19.61
2018-09-20T07:09:52.016Z,19.68
2018-09-20T07:12:20.905Z,19.64
2018-09-20T07:14:49.789Z,19.66
2018-09-20T07:17:18.720Z,19.82
2018-09-20T07:19:47.619Z,19.82
2018-09-20T07:22:16.524Z,19.91
2018-09-20T07:24:45.661Z,20.01
2018-09-20T07:27:14.550Z,20.02
2018-09-20T07:29:43.553Z,20.04
2018-09-20T07:32:12.439Z,20.15
2018-09-20T07:34:41.297Z,20.22
2018-09-20T07:37:10.225Z,20.39
2018-09-20T07:39:39.084Z,20.31
2018-09-20T07:42:08.037Z,20.43
2018-09-20T07:44:36.889Z,20.38
2018-09-20T07:47:05.770Z,20.42
2018-09-20T07:49:34.706Z,20.46
2018-09-20T07:52:03.644Z,20.53
2018-09-20T07:54:32.576Z,20.64
2018-09-20T07:57:01.688Z,20.73
2018-09-20T07:59:30.657Z,20.70
2018-09-20T08:01:59.650Z,20.77
2018-09-20T08:04:28.527Z,20.71
2018-09-20T08:06:57.460Z,20.70
2018-09-20T08:09:26.346Z,20.59
2018-09-20T08:11:55.223Z,20.58
2018-09-20T08:14:24.221Z,20.61
2018-09-20T08:16:53.102Z,20.58
2018-09-20T08:19:21.963Z,20.63
2018-09-20T08:21:50.893Z,20.85
2018-09-20T08:24:19.810Z,20.93
2018-09-20T08:26:48.684Z,20.95
2018-09-20T08:29:17.564Z,20.93
2018-09-20T08:31:46.513Z,21.10
2018-09-20T08:34:15.438Z,21.20
2018-09-20T08:36:44.383Z,21.26
2018-09-20T08:39:13.673Z,21.17
2018-09-20T08:41:42.519Z,21.22
2018-09-20T08:44:11.462Z,21.25
2018-09-20T08:46:40.491Z,21.32
2018-09-20T08:49:09.371Z,21.38
2018-09-20T08:51:38.302Z,21.51
2018-09-20T08:54:07.345Z,21.53
2018-09-20T08:56:36.238Z,21.42
2018-09-20T08:59:05.144Z,21.56
2018-09-20T09:01:34.043Z,21.46
2018-09-20T09:04:02.956Z,21.71
2018-09-20T09:06:31.836Z,21.78
2018-09-20T09:09:00.892Z,21.84
2018-09-20T09:11:29.803Z,21.78
2018-09-20T09:13:58.751Z,21.83
2018-09-20T09:16:27.644Z,21.93
2018-09-20T09:18:56.730Z,21.94
2018-09-20T09:21:25.636Z,22.03
2018-09-20T09:23:54.515Z,22.15
2018-09-20T09:26:23.593Z,22.24
2018-09-20T09:28:52.585Z,22.03
2018-09-20T09:31:21.475Z,22.11
2018-09-20T09:33:50.361Z,22.18
2018-09-20T09:36:19.239Z,22.39
2018-09-20T09:38:48.142Z,22.50
2018-09-20T09:41:17.202Z,22.47
2018-09-20T09:43:46.172Z,22.59
2018-09-20T09:46:15.551Z,22.53
2018-09-20T09:48:44.538Z,22.73
2018-09-20T09:51:13.417Z,22.64
2018-09-20T09:53:42.407Z,22.68
2018-09-20T09:56:11.358Z,22.87
2018-09-20T09:58:40.439Z,22.87
2018-09-20T10:01:09.303Z,22.94
2018-09-20T10:03:38.189Z,22.88
2018-09-20T10:06:07.115Z,23.08
2018-09-20T10:08:36.075Z,23.23
2018-09-20T10:11:05.003Z,22.98
2018-09-20T10:13:33.968Z,23.13
2018-09-20T10:16:03.607Z,23.06
2018-09-20T10:18:32.544Z,22.96
2018-09-20T10:21:01.417Z,23.10
2018-09-20T10:23:30.348Z,23.29
2018-09-20T10:25:59.247Z,23.24
2018-09-20T10:28:28.200Z,23.36
2018-09-20T10:30:57.753Z,23.44
2018-09-20T10:33:26.748Z,23.35
2018-09-20T10:35:55.802Z,23.55
2018-09-20T10:38:24.718Z,23.57
2018-09-20T10:40:53.646Z,23.92
2018-09-20T10:43:22.589Z,23.87
2018-09-20T10:45:51.509Z,23.85
2018-09-20T10:48:20.414Z,23.68
2018-09-20T10:50:49.347Z,24.00
2018-09-20T10:53:18.260Z,23.78
2018-09-20T10:55:47.308Z,23.74
2018-09-20T10:58:16.220Z,23.84
2018-09-20T11:00:45.343Z,24.04
2018-09-20T11:03:14.297Z,24.23
2018-09-20T11:05:43.260Z,24.36
2018-09-20T11:08:12.773Z,24.43
2018-09-20T11:10:41.863Z,24.19
2018-09-20T11:13:10.774Z,24.05
2018-09-20T11:15:39.656Z,23.96
2018-09-20T11:18:08.798Z,23.99
2018-09-20T11:20:37.667Z,23.96
2018-09-20T11:23:06.595Z,24.23
2018-09-20T11:25:35.641Z,24.47
2018-09-20T11:28:04.597Z,24.56
2018-09-20T11:30:33.499Z,24.25
2018-09-20T11:33:02.956Z,24.39
2018-09-20T11:35:31.854Z,24.17
2018-09-20T11:38:00.748Z,24.09
2018-09-20T11:40:29.695Z,24.00
2018-09-20T11:42:58.773Z,24.07
2018-09-20T11:45:27.656Z,24.26
2018-09-20T11:47:56.600Z,24.25
2018-09-20T11:50:25.497Z,24.49
2018-09-20T11:52:54.416Z,24.36
2018-09-20T11:55:23.302Z,24.36
2018-09-20T11:57:52.211Z,24.47
2018-09-20T12:00:22.088Z,24.70
2018-09-20T12:02:52.390Z,24.65
2018-09-20T12:05:21.743Z,24.65
2018-09-20T12:07:50.609Z,24.66
2018-09-20T12:10:19.890Z,24.83
2018-09-20T12:12:49.048Z,24.97
2018-09-20T12:15:17.994Z,24.85
2018-09-20T12:17:46.873Z,24.80
2018-09-20T12:20:15.978Z,24.76
2018-09-20T12:22:44.858Z,24.94
2018-09-20T12:25:13.747Z,25.07
2018-09-20T12:27:42.765Z,24.91
2018-09-20T12:30:11.633Z,24.91
2018-09-20T12:32:40.574Z,24.81
2018-09-20T12:35:09.452Z,24.89
2018-09-20T12:37:39.141Z,24.98
2018-09-20T12:40:09.140Z,25.10
2018-09-20T12:42:38.088Z,25.07
2018-09-20T12:45:07.277Z,25.17
2018-09-20T12:47:36.202Z,25.19
2018-09-20T12:50:05.112Z,25.10
2018-09-20T12:52:34.046Z,25.05
2018-09-20T12:55:02.908Z,25.08
2018-09-20T12:57:31.887Z,25.06
2018-09-20T13:00:00.917Z,25.15
2018-09-20T13:02:29.784Z,25.17
2018-09-20T13:04:58.675Z,25.10
2018-09-20T13:07:27.593Z,25.31
2018-09-20T13:09:56.788Z,25.27
2018-09-20T13:12:25.735Z,25.26
2018-09-20T13:14:54.733Z,25.06
2018-09-20T13:17:23.679Z,25.28
2018-09-20T13:19:52.592Z,25.26
2018-09-20T13:22:21.427Z,25.20
2018-09-20T13:24:50.549Z,25.26
2018-09-20T13:27:20.597Z,25.37
2018-09-20T13:29:49.475Z,25.37
2018-09-20T13:32:18.638Z,25.19
2018-09-20T13:34:47.574Z,25.32
2018-09-20T13:37:16.545Z,25.35
2018-09-20T13:39:45.582Z,25.43
2018-09-20T13:42:14.830Z,25.70
2018-09-20T13:44:43.763Z,25.71
2018-09-20T13:47:12.721Z,25.33
2018-09-20T13:49:41.629Z,25.32
2018-09-20T13:52:10.606Z,25.43
2018-09-20T13:54:39.577Z,25.49
2018-09-20T13:57:08.651Z,25.59
2018-09-20T13:59:37.545Z,25.75
2018-09-20T14:02:06.573Z,25.79
2018-09-20T14:04:35.452Z,25.85
2018-09-20T14:07:04.368Z,25.74
2018-09-20T14:09:33.283Z,25.59
2018-09-20T14:12:02.211Z,25.48
2018-09-20T14:14:31.112Z,25.48
2018-09-20T14:17:00.011Z,25.60
2018-09-20T14:19:28.938Z,25.49
2018-09-20T14:21:57.831Z,25.44
2018-09-20T14:24:26.705Z,25.48
2018-09-20T14:26:55.680Z,25.73
2018-09-20T14:29:24.559Z,25.70
2018-09-20T14:31:53.454Z,25.61
2018-09-20T14:34:22.432Z,25.59
2018-09-20T14:36:51.316Z,25.46
2018-09-20T14:39:20.215Z,25.53
2018-09-20T14:41:49.093Z,25.62
2018-09-20T14:44:18.018Z,25.65
2018-09-20T14:46:46.984Z,25.58
2018-09-20T14:49:15.863Z,25.64
2018-09-20T14:51:44.768Z,25.59
2018-09-20T14:54:13.639Z,25.48
2018-09-20T14:56:42.499Z,25.49
2018-09-20T14:59:11.705Z,25.50
2018-09-20T15:01:40.678Z,25.67
2018-09-20T15:04:09.541Z,25.56
2018-09-20T15:06:38.459Z,25.73
2018-09-20T15:09:09.961Z,25.74
2018-09-20T15:11:38.892Z,25.62
2018-09-20T15:14:07.811Z,25.79
2018-09-20T15:16:36.689Z,25.80
2018-09-20T15:19:05.763Z,25.71
2018-09-20T15:21:34.680Z,25.58
2018-09-20T15:24:03.859Z,25.41
2018-09-20T15:26:32.805Z,25.47
2018-09-20T15:29:01.704Z,25.53
2018-09-20T15:31:30.607Z,25.79
2018-09-20T15:33:59.505Z,25.74
2018-09-20T15:36:28.413Z,25.84
2018-09-20T15:38:57.429Z,25.89
2018-09-20T15:41:26.326Z,25.85
2018-09-20T15:43:55.245Z,25.85
2018-09-20T15:46:24.339Z,25.91
2018-09-20T15:48:53.268Z,25.81
2018-09-20T15:51:22.177Z,25.80
2018-09-20T15:53:51.118Z,25.78
2018-09-20T15:56:20.033Z,25.76
2018-09-20T15:58:48.919Z,25.77
2018-09-20T16:01:17.972Z,25.69
2018-09-20T16:03:46.872Z,25.64
2018-09-20T16:06:15.729Z,25.66
2018-09-20T16:08:44.835Z,25.68
2018-09-20T16:11:13.693Z,25.62
2018-09-20T16:13:42.563Z,25.59
2018-09-20T16:16:11.612Z,25.68
2018-09-20T16:18:40.492Z,25.67
2018-09-20T16:21:09.359Z,25.55
2018-09-20T16:23:38.385Z,25.52
2018-09-20T16:26:39.266Z,25.45
2018-09-20T16:29:54.044Z,25.48
2018-09-20T16:34:34.361Z,25.38
2018-09-20T16:37:10.409Z,25.17
2018-09-20T16:39:40.111Z,25.20
2018-09-20T16:42:10.178Z,25.29
2018-09-20T16:44:39.048Z,25.21
2018-09-20T16:47:07.965Z,25.06
2018-09-20T16:49:36.831Z,25.08
2018-09-20T16:52:05.701Z,25.08
2018-09-20T16:54:34.610Z,25.00
2018-09-20T16:57:03.517Z,25.03
2018-09-20T16:59:32.435Z,24.91
2018-09-20T17:02:01.307Z,24.90
2018-09-20T17:04:30.211Z,24.74
2018-09-20T17:06:59.139Z,24.82
2018-09-20T17:09:28.030Z,24.64
2018-09-20T17:11:57.280Z,24.56
2018-09-20T17:14:26.226Z,24.54
2018-09-20T17:16:55.108Z,24.40
2018-09-20T17:19:24.167Z,24.30
2018-09-20T17:21:53.066Z,24.26
2018-09-20T17:24:21.950Z,24.09
2018-09-20T17:26:50.872Z,24.17
2018-09-20T17:29:19.974Z,23.98
2018-09-20T17:31:48.839Z,24.13
2018-09-20T17:34:17.883Z,24.12
2018-09-20T17:36:47.204Z,24.05
2018-09-20T17:39:16.971Z,24.08
2018-09-20T17:41:47.328Z,23.95
2018-09-20T17:44:17.019Z,23.91
2018-09-20T17:46:45.947Z,23.81
2018-09-20T17:49:14.837Z,23.84
2018-09-20T17:51:44.007Z,23.74
2018-09-20T17:54:13.269Z,23.73
2018-09-20T17:56:42.455Z,23.68
2018-09-20T17:59:11.370Z,23.61
2018-09-20T18:01:40.244Z,23.58
2018-09-20T18:04:09.439Z,23.60
2018-09-20T18:06:38.334Z,23.49
2018-09-20T18:09:08.678Z,23.35
2018-09-20T18:11:38.805Z,23.38
2018-09-20T18:14:07.704Z,23.36
2018-09-20T18:16:36.632Z,23.39
2018-09-20T18:19:05.534Z,23.29
2018-09-20T18:21:34.460Z,23.21
2018-09-20T18:24:03.381Z,23.34
2018-09-20T18:26:32.270Z,23.16
2018-09-20T18:29:01.251Z,22.99
2018-09-20T18:31:30.175Z,23.15
2018-09-20T18:33:59.162Z,23.03
2018-09-20T18:36:28.257Z,22.97
2018-09-20T18:38:57.197Z,22.92
2018-09-20T18:41:26.096Z,22.77
2018-09-20T18:43:55.037Z,22.94
2018-09-20T18:46:23.950Z,22.91
2018-09-20T18:48:52.845Z,22.69
2018-09-20T18:51:21.774Z,22.73
2018-09-20T18:53:50.666Z,22.71
2018-09-20T18:56:19.573Z,22.79
2018-09-20T18:58:48.463Z,22.62
2018-09-20T19:01:17.502Z,22.49
2018-09-20T19:03:46.443Z,22.53
2018-09-20T19:06:15.372Z,22.41
2018-09-20T19:08:44.283Z,22.53
2018-09-20T19:11:13.204Z,22.25
2018-09-20T19:13:42.169Z,22.21
2018-09-20T19:16:11.229Z,22.22
2018-09-20T19:18:40.535Z,22.26
2018-09-20T19:21:09.422Z,22.37
2018-09-20T19:23:38.294Z,22.24
2018-09-20T19:26:07.481Z,22.39
2018-09-20T19:28:36.393Z,22.24
2018-09-20T19:31:05.344Z,22.17
2018-09-20T19:33:34.269Z,22.12
2018-09-20T19:36:03.169Z,22.11
2018-09-20T19:38:32.046Z,21.98
2018-09-20T19:41:01.494Z,22.06
2018-09-20T19:43:30.399Z,22.01
2018-09-20T19:45:59.283Z,21.82
2018-09-20T19:48:28.208Z,21.91
2018-09-20T19:50:57.286Z,21.76
2018-09-20T19:53:26.237Z,21.94
2018-09-20T19:55:55.214Z,21.94
2018-09-20T19:58:24.284Z,21.88
2018-09-20T20:00:53.197Z,21.85
2018-09-20T20:03:22.078Z,21.70
2018-09-20T20:05:51.018Z,21.71
2018-09-20T20:08:19.901Z,21.84
2018-09-20T20:10:48.816Z,21.82
2018-09-20T20:13:17.762Z,21.55
2018-09-20T20:15:46.690Z,21.71
2018-09-20T20:18:15.603Z,21.65
2018-09-20T20:20:44.530Z,21.49
2018-09-20T20:23:13.482Z,21.30
2018-09-20T20:25:42.363Z,21.26
2018-09-20T20:28:11.313Z,21.39
2018-09-20T20:30:40.375Z,21.30
2018-09-20T20:33:09.296Z,21.23
2018-09-20T20:35:38.259Z,21.31
2018-09-20T20:38:07.286Z,21.51
2018-09-20T20:40:36.197Z,21.71
2018-09-20T20:43:05.112Z,21.18
2018-09-20T20:45:34.062Z,21.41
2018-09-20T20:48:02.983Z,21.19
2018-09-20T20:50:31.923Z,21.04
2018-09-20T20:53:00.849Z,21.16
2018-09-20T20:55:29.720Z,21.07
2018-09-20T20:57:58.591Z,21.06
2018-09-20T21:00:27.533Z,21.02
2018-09-20T21:02:56.480Z,20.80
2018-09-20T21:05:25.407Z,21.06
2018-09-20T21:07:54.429Z,20.83
2018-09-20T21:10:23.368Z,20.73
2018-09-20T21:12:52.276Z,20.89
2018-09-20T21:15:21.292Z,20.75
2018-09-20T21:17:50.312Z,20.64
2018-09-20T21:20:19.241Z,21.13
2018-09-20T21:22:48.202Z,21.29
2018-09-20T21:25:17.316Z,21.10
2018-09-20T21:27:46.248Z,21.07
2018-09-20T21:30:15.090Z,20.94
2018-09-20T21:32:44.021Z,20.98
2018-09-20T21:35:12.939Z,20.79
2018-09-20T21:37:41.960Z,20.89
2018-09-20T21:40:10.866Z,20.69
2018-09-20T21:42:39.926Z,20.59
2018-09-20T21:45:08.825Z,20.60
2018-09-20T21:47:37.705Z,20.60
2018-09-20T21:50:07.159Z,20.90
2018-09-20T21:52:36.048Z,20.70
2018-09-20T21:55:04.983Z,20.70
2018-09-20T21:57:34.059Z,20.75
2018-09-20T22:00:03.006Z,21.00
2018-09-20T22:02:37.180Z,20.91
2018-09-20T22:05:06.123Z,20.90
2018-09-20T22:07:35.060Z,20.41
2018-09-20T22:10:03.997Z,20.59
2018-09-20T22:12:33.196Z,20.66
2018-09-20T22:15:02.208Z,20.47
2018-09-20T22:17:31.232Z,20.36
2018-09-20T22:20:00.148Z,20.31
2018-09-20T22:22:29.056Z,20.61
2018-09-20T22:24:58.091Z,20.38
2018-09-20T22:27:27.142Z,20.39
2018-09-20T22:29:56.168Z,20.26
2018-09-20T22:32:25.054Z,20.27
2018-09-20T22:34:54.079Z,20.17
2018-09-20T22:37:23.019Z,20.13
2018-09-20T22:39:51.921Z,20.09
2018-09-20T22:42:20.781Z,20.14
2018-09-20T22:44:49.728Z,20.05
2018-09-20T22:47:18.634Z,20.22
2018-09-20T22:49:47.504Z,20.14
2018-09-20T22:52:16.604Z,20.24
2018-09-20T22:54:45.490Z,20.20
2018-09-20T22:57:14.542Z,20.25
2018-09-20T22:59:44.139Z,20.41
2018-09-20T23:02:13.086Z,20.20
2018-09-20T23:04:41.970Z,20.36
2018-09-20T23:07:10.923Z,20.08
2018-09-20T23:09:39.763Z,20.03
2018-09-20T23:12:08.696Z,19.93
2018-09-20T23:14:37.639Z,19.95
2018-09-20T23:17:06.548Z,19.96
2018-09-20T23:19:35.501Z,20.00
2018-09-20T23:22:04.423Z,19.97
2018-09-20T23:24:33.327Z,20.17
2018-09-20T23:27:02.236Z,19.83
2018-09-20T23:29:31.185Z,19.72
2018-09-20T23:32:00.100Z,19.63
2018-09-20T23:34:28.977Z,19.64
2018-09-20T23:36:57.903Z,19.47
2018-09-20T23:39:26.939Z,19.50
2018-09-20T23:41:55.830Z,19.51
2018-09-20T23:44:24.763Z,19.29
2018-09-20T23:46:53.697Z,19.43
2018-09-20T23:49:22.612Z,19.40
2018-09-20T23:51:51.514Z,19.38
2018-09-20T23:54:20.446Z,19.45
2018-09-20T23:56:49.337Z,19.52
2018-09-20T23:59:18.255Z,19.32
